createdAt,value
2023-04-25T04:02:53.269Z,8.70
2023-04-25T04:05:25.417Z,6.50
2023-04-25T04:07:57.258Z,6.50
2023-04-25T04:10:28.944Z,6.50
2023-04-25T04:13:00.628Z,6.50
2023-04-25T04:15:35.738Z,6.60
2023-04-25T04:18:08.845Z,6.60
2023-04-25T04:20:40.526Z,6.60
2023-04-25T04:23:12.336Z,6.60
2023-04-25T04:25:44.004Z,6.60
2023-04-25T04:28:15.654Z,6.70
2023-04-25T04:30:47.334Z,6.70
2023-04-25T04:33:20.341Z,6.70
2023-04-25T04:35:52.099Z,6.70
2023-04-25T04:38:23.762Z,6.70
2023-04-25T04:40:55.462Z,6.70
2023-04-25T04:43:27.117Z,6.80
2023-04-25T04:45:58.797Z,6.80
2023-04-25T04:48:32.545Z,6.80
2023-04-25T04:51:04.207Z,6.80
2023-04-25T04:53:35.862Z,6.80
2023-04-25T04:56:07.712Z,6.80
2023-04-25T04:58:39.360Z,6.80
2023-04-25T05:01:11.097Z,6.90
2023-04-25T05:03:44.259Z,6.90
2023-04-25T05:06:16.097Z,7.00
2023-04-25T05:08:47.767Z,7.00
2023-04-25T05:11:19.486Z,7.10
2023-04-25T05:13:52.124Z,7.10
2023-04-25T05:16:24.100Z,7.10
2023-04-25T05:18:57.132Z,7.20
2023-04-25T05:21:28.798Z,7.20
2023-04-25T05:24:00.467Z,7.30
2023-04-25T05:26:32.192Z,7.40
2023-04-25T05:29:03.873Z,7.50
2023-04-25T05:31:36.374Z,7.70
2023-04-25T05:34:09.393Z,7.90
2023-04-25T05:36:41.063Z,8.30
2023-04-25T05:39:12.738Z,8.70
2023-04-25T05:41:44.497Z,9.10
2023-04-25T05:44:16.174Z,9.50
2023-04-25T05:46:47.891Z,9.90
2023-04-25T05:49:21.317Z,10.00
2023-04-25T05:51:52.980Z,10.00
2023-04-25T05:54:24.679Z,10.20
2023-04-25T05:56:57.275Z,10.60
2023-04-25T05:59:28.953Z,11.10
2023-04-25T06:02:00.685Z,11.30
2023-04-25T06:04:34.068Z,11.70
2023-04-25T06:07:06.144Z,11.60
2023-04-25T06:09:37.832Z,11.90
2023-04-25T06:12:09.494Z,11.90
2023-04-25T06:14:41.874Z,12.70
2023-04-25T06:17:13.538Z,13.20
2023-04-25T06:19:46.566Z,13.30
2023-04-25T06:22:18.231Z,13.70
2023-04-25T06:24:49.924Z,14.90
2023-04-25T06:27:21.855Z,14.80
2023-04-25T06:29:53.595Z,13.90
2023-04-25T06:32:26.086Z,12.90
2023-04-25T06:35:00.603Z,12.40
2023-04-25T06:37:32.305Z,12.00
2023-04-25T06:40:04.953Z,11.80
2023-04-25T06:42:36.670Z,11.50
2023-04-25T06:45:09.301Z,11.30
2023-04-25T06:47:40.981Z,11.20
2023-04-25T06:50:14.033Z,11.00
2023-04-25T06:52:45.678Z,11.40
2023-04-25T06:55:17.438Z,11.50
2023-04-25T06:57:49.113Z,11.70
2023-04-25T07:00:21.729Z,11.80
2023-04-25T07:02:53.517Z,12.10
2023-04-25T07:05:26.604Z,11.70
2023-04-25T07:07:58.303Z,11.60
2023-04-25T07:10:29.992Z,11.50
2023-04-25T07:13:01.693Z,11.30
2023-04-25T07:15:33.352Z,12.00
2023-04-25T07:18:05.129Z,12.30
2023-04-25T07:20:38.225Z,12.30
2023-04-25T07:23:09.900Z,11.80
2023-04-25T07:25:41.573Z,11.80
2023-04-25T07:28:13.282Z,11.80
2023-04-25T07:30:45.002Z,11.90
2023-04-25T07:33:16.711Z,12.00
2023-04-25T07:35:49.774Z,12.00
2023-04-25T07:38:21.517Z,11.60
2023-04-25T07:43:25.391Z,11.30
2023-04-25T07:45:57.298Z,11.40
2023-04-25T07:48:29.051Z,11.40
2023-04-25T07:51:02.081Z,11.30
2023-04-25T07:53:33.739Z,11.20
2023-04-25T07:56:06.146Z,11.20
2023-04-25T07:58:37.814Z,11.60
2023-04-25T08:01:09.521Z,12.00
2023-04-25T08:03:41.517Z,12.40
2023-04-25T08:06:14.974Z,12.80
2023-04-25T08:08:46.817Z,13.00
2023-04-25T08:11:18.533Z,12.60
2023-04-25T08:13:50.194Z,12.40
2023-04-25T08:16:21.958Z,12.50
2023-04-25T08:18:53.836Z,12.30
2023-04-25T08:21:27.083Z,11.90
2023-04-25T08:26:31.288Z,11.60
2023-04-25T08:29:02.957Z,11.90
2023-04-25T08:31:34.634Z,12.20
2023-04-25T08:34:06.363Z,12.50
2023-04-25T08:36:40.389Z,13.00
2023-04-25T08:39:12.284Z,13.10
2023-04-25T08:41:43.974Z,12.80
2023-04-25T08:44:15.666Z,12.40
2023-04-25T08:49:19.089Z,12.20
2023-04-25T08:51:52.098Z,12.60
2023-04-25T08:54:33.583Z,12.60
2023-04-25T08:57:06.769Z,12.00
2023-04-25T08:59:39.224Z,12.00
2023-04-25T09:02:11.110Z,11.70
2023-04-25T09:04:43.909Z,11.40
2023-04-25T09:07:16.903Z,11.50
2023-04-25T09:09:48.582Z,11.70
2023-04-25T09:12:20.309Z,11.70
2023-04-25T09:15:05.801Z,11.60
2023-04-25T09:17:37.471Z,11.70
2023-04-25T09:20:10.066Z,11.70
2023-04-25T09:22:43.137Z,11.80
2023-04-25T09:25:14.842Z,11.70
2023-04-25T09:27:53.190Z,11.80
2023-04-25T09:30:29.967Z,11.70
2023-04-25T09:33:05.619Z,11.50
2023-04-25T09:35:37.602Z,11.60
2023-04-25T09:38:11.447Z,11.50
2023-04-25T09:40:46.038Z,11.50
2023-04-25T09:43:20.846Z,11.50
2023-04-25T09:45:54.229Z,11.60
2023-04-25T09:48:27.228Z,11.30
2023-04-25T09:51:08.464Z,11.20
2023-04-25T09:53:42.108Z,11.10
2023-04-25T09:56:13.815Z,11.10
2023-04-25T09:58:45.504Z,11.30
2023-04-25T10:01:17.223Z,11.30
2023-04-25T10:03:49.020Z,11.30
2023-04-25T10:06:20.954Z,11.10
2023-04-25T10:08:54.014Z,10.90
2023-04-25T10:11:25.862Z,10.90
2023-04-25T10:13:57.495Z,10.50
2023-04-25T10:16:29.287Z,10.30
2023-04-25T10:19:00.980Z,10.40
2023-04-25T10:21:32.715Z,10.70
2023-04-25T10:24:06.336Z,10.90
2023-04-25T10:26:37.977Z,11.20
2023-04-25T10:29:10.060Z,11.50
2023-04-25T10:31:47.829Z,11.60
2023-04-25T10:34:19.687Z,11.90
2023-04-25T10:36:51.669Z,12.20
2023-04-25T10:39:25.563Z,12.30
2023-04-25T10:41:57.825Z,12.80
2023-04-25T10:44:29.831Z,13.10
2023-04-25T10:47:02.363Z,13.20
2023-04-25T10:49:34.703Z,13.00
2023-04-25T10:52:13.473Z,12.70
2023-04-25T10:54:49.663Z,12.10
2023-04-25T10:57:37.458Z,11.70
2023-04-25T11:00:11.447Z,11.50
2023-04-25T11:02:44.244Z,11.50
2023-04-25T11:05:21.440Z,11.30
2023-04-25T11:08:03.930Z,11.30
2023-04-25T11:10:46.755Z,11.10
2023-04-25T11:13:19.030Z,10.90
2023-04-25T11:16:02.984Z,11.30
2023-04-25T11:18:44.075Z,11.50
2023-04-25T11:21:15.727Z,12.00
2023-04-25T11:23:47.532Z,12.30
2023-04-25T11:26:21.563Z,12.60
2023-04-25T11:28:53.238Z,12.50
2023-04-25T11:31:25.721Z,12.40
2023-04-25T11:33:57.887Z,12.30
2023-04-25T11:36:29.567Z,12.50
2023-04-25T11:39:01.249Z,12.70
2023-04-25T11:41:34.266Z,12.90
2023-04-25T11:44:06.096Z,12.90
2023-04-25T11:46:37.816Z,12.80
2023-04-25T11:49:09.535Z,12.50
2023-04-25T11:51:41.259Z,12.00
2023-04-25T11:54:13.023Z,11.80
2023-04-25T11:56:46.282Z,11.80
2023-04-25T11:59:17.992Z,11.90
2023-04-25T12:01:50.216Z,12.00
2023-04-25T12:04:23.126Z,12.30
2023-04-25T12:06:55.795Z,12.50
2023-04-25T12:09:31.016Z,12.70
2023-04-25T12:12:04.493Z,13.00
2023-04-25T12:14:36.951Z,13.10
2023-04-25T12:17:09.182Z,13.10
2023-04-25T12:19:41.368Z,13.20
2023-04-25T12:22:20.405Z,13.50
2023-04-25T12:24:52.088Z,13.50
2023-04-25T12:27:26.023Z,13.70
2023-04-25T12:29:58.158Z,13.70
2023-04-25T12:32:29.920Z,13.50
2023-04-25T12:35:01.613Z,13.20
2023-04-25T12:37:33.288Z,12.90
2023-04-25T12:40:06.061Z,13.40
2023-04-25T12:42:39.031Z,12.90
2023-04-25T12:45:10.724Z,12.50
2023-04-25T12:47:42.424Z,11.90
2023-04-25T12:50:14.113Z,11.80
2023-04-25T12:52:45.767Z,12.00
2023-04-25T12:57:50.792Z,11.60
2023-04-25T13:00:22.523Z,11.10
2023-04-25T13:02:54.375Z,11.10
2023-04-25T13:05:26.246Z,11.10
2023-04-25T13:07:57.938Z,11.30
2023-04-25T13:10:29.606Z,11.30
2023-04-25T13:13:02.865Z,11.30
2023-04-25T13:15:34.592Z,11.10
2023-04-25T13:18:06.321Z,11.10
2023-04-25T13:20:38.059Z,11.20
2023-04-25T13:23:09.725Z,11.30
2023-04-25T13:25:41.371Z,11.20
2023-04-25T13:28:14.548Z,11.40
2023-04-25T13:30:46.421Z,11.50
2023-04-25T13:33:18.081Z,11.60
2023-04-25T13:35:49.825Z,11.40
2023-04-25T13:38:22.227Z,11.40
2023-04-25T13:40:54.148Z,11.60
2023-04-25T13:43:27.207Z,11.70
2023-04-25T13:45:58.898Z,11.80
2023-04-25T13:48:30.608Z,11.80
2023-04-25T13:51:02.286Z,11.70
2023-04-25T13:53:35.047Z,11.70
2023-04-25T13:56:07.116Z,11.70
2023-04-25T13:58:40.174Z,11.70
2023-04-25T14:01:11.873Z,11.70
2023-04-25T14:03:43.690Z,11.80
2023-04-25T14:06:15.447Z,12.00
2023-04-25T14:08:47.128Z,12.20
2023-04-25T14:11:19.096Z,12.30
2023-04-25T14:13:52.342Z,12.40
2023-04-25T14:16:24.393Z,12.50
2023-04-25T14:18:56.184Z,12.60
2023-04-25T14:21:27.836Z,12.60
2023-04-25T14:23:59.540Z,12.20
2023-04-25T14:26:31.235Z,12.20
2023-04-25T14:29:04.273Z,12.00
2023-04-25T14:31:36.391Z,12.00
2023-04-25T14:34:08.231Z,11.60
2023-04-25T14:36:39.899Z,11.70
2023-04-25T14:39:11.562Z,11.90
2023-04-25T14:41:43.232Z,11.60
2023-04-25T14:44:16.264Z,11.60
2023-04-25T14:46:48.003Z,11.50
2023-04-25T14:49:19.724Z,11.60
2023-04-25T14:51:51.960Z,11.70
2023-04-25T14:54:24.571Z,11.40
2023-04-25T14:56:56.239Z,11.30
2023-04-25T14:59:29.304Z,11.20
2023-04-25T15:02:00.966Z,11.10
2023-04-25T15:04:32.725Z,11.00
2023-04-25T15:07:04.470Z,11.10
2023-04-25T15:09:36.138Z,11.30
2023-04-25T15:12:07.996Z,11.50
2023-04-25T15:14:40.991Z,11.50
2023-04-25T15:17:12.696Z,11.40
2023-04-25T15:19:44.377Z,11.20
2023-04-25T15:22:16.028Z,11.00
2023-04-25T15:24:47.760Z,10.90
2023-04-25T15:27:19.434Z,10.90
2023-04-25T15:29:52.457Z,10.90
2023-04-25T15:32:24.208Z,10.80
2023-04-25T15:34:56.004Z,10.80
2023-04-25T15:37:27.633Z,10.80
2023-04-25T15:40:02.264Z,11.10
2023-04-25T15:42:33.946Z,11.20
2023-04-25T15:45:08.112Z,11.30
2023-04-25T15:47:39.999Z,11.40
2023-04-25T15:52:43.959Z,11.40
2023-04-25T15:55:15.699Z,11.50
2023-04-25T15:57:49.123Z,11.40
2023-04-25T16:00:22.360Z,11.50
2023-04-25T16:02:54.204Z,11.40
2023-04-25T16:05:26.099Z,11.30
2023-04-25T16:07:57.792Z,11.20
2023-04-25T16:10:29.445Z,11.10
2023-04-25T16:13:01.151Z,11.30
2023-04-25T16:15:35.537Z,11.50
2023-04-25T16:18:07.527Z,11.50
2023-04-25T16:20:39.365Z,11.40
2023-04-25T16:23:11.015Z,11.40
2023-04-25T16:25:42.638Z,11.40
2023-04-25T16:28:14.345Z,11.30
2023-04-25T16:30:47.358Z,11.40
2023-04-25T16:33:19.049Z,11.40
2023-04-25T16:35:50.725Z,11.30
2023-04-25T16:38:22.395Z,11.30
2023-04-25T16:40:54.043Z,11.30
2023-04-25T16:43:25.714Z,11.20
2023-04-25T16:45:58.885Z,11.20
2023-04-25T16:48:30.522Z,11.20
2023-04-25T16:51:02.151Z,11.30
2023-04-25T16:53:33.806Z,11.40
2023-04-25T16:56:05.993Z,11.40
2023-04-25T16:58:37.651Z,11.30
2023-04-25T17:01:10.918Z,11.20
2023-04-25T17:03:43.318Z,11.10
2023-04-25T17:06:15.049Z,10.90
2023-04-25T17:08:46.721Z,10.80
2023-04-25T17:11:18.484Z,10.80
2023-04-25T17:13:50.158Z,10.80
2023-04-25T17:16:23.258Z,10.70
2023-04-25T17:18:55.325Z,10.70
2023-04-25T17:21:27.174Z,10.50
2023-04-25T17:23:58.907Z,10.50
2023-04-25T17:26:30.572Z,10.40
2023-04-25T17:29:02.237Z,10.40
2023-04-25T17:31:35.382Z,10.30
2023-04-25T17:34:07.137Z,10.30
2023-04-25T17:36:38.785Z,10.30
2023-04-25T17:39:10.465Z,10.20
2023-04-25T17:41:42.120Z,10.30
2023-04-25T17:44:13.815Z,10.20
2023-04-25T17:46:46.959Z,10.20
2023-04-25T17:49:18.692Z,10.10
2023-04-25T17:51:50.343Z,10.00
2023-04-25T17:54:22.060Z,9.90
2023-04-25T17:56:53.898Z,9.90
2023-04-25T17:59:25.572Z,9.90
2023-04-25T18:01:58.575Z,9.90
2023-04-25T18:04:30.298Z,9.90
2023-04-25T18:07:02.140Z,9.80
2023-04-25T18:09:33.800Z,9.90
2023-04-25T18:12:06.065Z,9.70
2023-04-25T18:14:38.227Z,9.80
2023-04-25T18:17:11.257Z,9.70
2023-04-25T18:19:42.911Z,9.60
2023-04-25T18:22:14.592Z,9.50
2023-04-25T18:24:46.256Z,9.50
2023-04-25T18:27:17.947Z,9.80
2023-04-25T18:29:49.860Z,9.40
2023-04-25T18:32:22.901Z,9.40
2023-04-25T18:34:54.742Z,9.30
2023-04-25T18:37:26.395Z,9.40
2023-04-25T18:39:58.041Z,9.30
2023-04-25T18:42:29.762Z,9.30
2023-04-25T18:45:01.398Z,9.30
2023-04-25T18:47:34.472Z,9.30
2023-04-25T18:50:07.353Z,9.20
2023-04-25T18:52:39.004Z,9.10
2023-04-25T18:55:10.642Z,9.10
2023-04-25T18:57:42.510Z,9.00
2023-04-25T19:00:14.596Z,8.90
2023-04-25T19:02:47.717Z,8.90
2023-04-25T19:05:19.658Z,8.80
2023-04-25T19:07:51.303Z,8.70
2023-04-25T19:10:23.004Z,8.70
2023-04-25T19:12:54.689Z,8.60
2023-04-25T19:15:26.353Z,8.50
2023-04-25T19:17:59.392Z,8.40
2023-04-25T19:20:31.251Z,8.40
2023-04-25T19:23:03.635Z,8.30
2023-04-25T19:25:35.303Z,8.30
2023-04-25T19:28:07.002Z,8.20
2023-04-25T19:30:38.771Z,8.30
2023-04-25T19:33:11.884Z,8.20
2023-04-25T19:35:43.531Z,8.10
2023-04-25T19:38:15.187Z,8.00
2023-04-25T19:40:46.826Z,8.00
2023-04-25T19:43:18.846Z,8.00
2023-04-25T19:45:50.541Z,7.90
2023-04-25T19:48:23.585Z,7.80
2023-04-25T19:50:55.245Z,7.80
2023-04-25T19:53:26.896Z,7.70
2023-04-25T19:55:58.760Z,7.70
2023-04-25T19:58:30.419Z,7.60
2023-04-25T20:01:02.059Z,7.60
2023-04-25T20:03:35.177Z,7.60
2023-04-25T20:06:06.878Z,7.60
2023-04-25T20:08:38.544Z,7.60
2023-04-25T20:11:10.199Z,7.50
2023-04-25T20:13:41.895Z,7.50
2023-04-25T20:16:13.557Z,7.50
2023-04-25T20:18:46.773Z,7.40
2023-04-25T20:21:18.628Z,7.40
2023-04-25T20:23:50.280Z,7.30
2023-04-25T20:26:22.914Z,7.40
2023-04-25T20:28:54.964Z,7.30
2023-04-25T20:31:26.747Z,7.20
2023-04-25T20:33:59.789Z,7.20
2023-04-25T20:36:31.436Z,7.20
2023-04-25T20:39:03.107Z,7.10
2023-04-25T20:41:34.755Z,7.00
2023-04-25T20:44:06.411Z,7.00
2023-04-25T20:46:38.097Z,7.00
2023-04-25T20:49:11.128Z,7.00
2023-04-25T20:51:42.772Z,6.90
2023-04-25T20:54:14.426Z,6.80
2023-04-25T20:56:46.076Z,6.90
2023-04-25T20:59:17.735Z,6.80
2023-04-25T21:01:49.409Z,6.70
2023-04-25T21:04:22.658Z,6.80
2023-04-25T21:06:54.617Z,6.80
2023-04-25T21:09:26.270Z,6.70
2023-04-25T21:11:57.941Z,6.70
2023-04-25T21:14:29.584Z,6.70
2023-04-25T21:17:01.381Z,6.60
2023-04-25T21:19:34.461Z,6.70
2023-04-25T21:22:06.144Z,6.50
2023-04-25T21:24:37.811Z,6.60
2023-04-25T21:27:09.499Z,6.50
2023-04-25T21:29:41.131Z,6.30
2023-04-25T21:32:13.399Z,6.20
2023-04-25T21:34:46.413Z,6.20
2023-04-25T21:37:18.085Z,6.10
2023-04-25T21:39:49.720Z,6.10
2023-04-25T21:42:21.377Z,6.10
2023-04-25T21:44:53.020Z,6.10
2023-04-25T21:47:24.856Z,6.10
2023-04-25T21:49:59.250Z,6.10
2023-04-25T21:52:31.030Z,6.10
2023-04-25T21:55:02.731Z,6.20
2023-04-25T21:57:34.409Z,6.30
